Time,TemperatureF,DewpointF,PressureIn,WindDirection,WindDirectionDegrees,WindSpeedMPH,WindSpeedGustMPH,Humidity,HourlyPrecipIn,Conditions,Clouds,dailyrainin,SoftwareType,DateUTC
2013-08-10 00:01:00,77.1,77.1,30.13,SW,229,0.0,0.0,100,0.00,RA,,0.00,WeatherDisplay:10.37,2013-08-10 04:01:00,
2013-08-10 00:06:00,77.2,77.2,30.13,SW,229,0.0,0.0,100,0.00,RA,,0.00,WeatherDisplay:10.37,2013-08-10 04:06:00,
2013-08-10 00:11:00,77.4,77.4,30.13,SW,229,0.0,0.0,100,0.00,CLR,,0.00,WeatherDisplay:10.37,2013-08-10 04:11:00,
2013-08-10 00:16:00,77.7,77.7,30.13,SW,229,0.0,0.0,100,0.00,CLR,,0.00,WeatherDisplay:10.37,2013-08-10 04:16:00,
2013-08-10 00:21:00,77.3,77.3,30.13,SW,229,0.0,0.0,100,0.00,CLR,,0.00,WeatherDisplay:10.37,2013-08-10 04:21:00,
2013-08-10 00:26:00,77.1,77.1,30.13,SW,229,0.0,0.0,100,0.00,CLR,,0.00,WeatherDisplay:10.37,2013-08-10 04:26:00,
2013-08-10 00:31:00,77.3,77.3,30.13,SW,229,0.0,0.0,100,0.00,CLR,,0.00,WeatherDisplay:10.37,2013-08-10 04:31:00,
2013-08-10 00:36:00,77.3,77.3,30.13,SW,229,0.0,0.0,100,0.00,CLR,,0.00,WeatherDisplay:10.37,2013-08-10 04:36:00,
2013-08-10 00:41:00,77.0,77.0,30.13,SW,229,0.0,0.0,100,0.00,CLR,,0.00,WeatherDisplay:10.37,2013-08-10 04:41:00,
2013-08-10 00:46:00,76.8,76.8,30.13,SW,229,0.0,0.0,100,0.00,CLR,,0.00,WeatherDisplay:10.37,2013-08-10 04:46:00,
2013-08-10 00:51:00,76.9,76.9,30.13,SW,229,0.0,0.0,100,0.00,CLR,,0.00,WeatherDisplay:10.37,2013-08-10 04:51:00,
2013-08-10 00:57:00,76.9,76.9,30.13,SW,229,0.0,0.0,100,0.00,CLR,,0.00,WeatherDisplay:10.37,2013-08-10 04:57:00,
2013-08-10 01:02:00,76.5,76.5,30.13,SW,229,0.0,0.0,100,0.00,CLR,,0.00,WeatherDisplay:10.37,2013-08-10 05:02:00,
2013-08-10 01:07:00,76.4,76.4,30.13,SW,229,0.0,0.0,100,0.00,CLR,,0.00,WeatherDisplay:10.37,2013-08-10 05:07:00,
2013-08-10 01:12:00,76.8,76.8,30.13,SW,229,0.0,0.0,100,0.00,CLR,,0.00,WeatherDisplay:10.37,2013-08-10 05:12:00,
2013-08-10 01:17:00,76.7,76.7,30.12,SW,229,0.0,0.0,100,0.00,CLR,,0.00,WeatherDisplay:10.37,2013-08-10 05:17:00,
2013-08-10 01:22:00,76.4,76.4,30.13,SW,229,0.0,0.0,100,0.00,CLR,,0.00,WeatherDisplay:10.37,2013-08-10 05:22:00,
2013-08-10 01:27:00,76.4,76.4,30.12,SW,229,0.0,0.0,100,0.00,CLR,,0.00,WeatherDisplay:10.37,2013-08-10 05:27:00,
2013-08-10 01:32:00,76.5,76.5,30.13,SW,229,0.0,0.0,100,0.00,CLR,,0.00,WeatherDisplay:10.37,2013-08-10 05:32:00,
2013-08-10 01:37:00,76.3,76.3,30.13,SW,229,0.0,0.0,100,0.00,CLR,,0.00,WeatherDisplay:10.37,2013-08-10 05:37:00,
2013-08-10 01:42:00,76.1,76.1,30.13,SW,229,0.0,0.0,100,0.00,CLR,,0.00,WeatherDisplay:10.37,2013-08-10 05:42:00,
2013-08-10 01:47:00,76.3,76.3,30.13,SW,229,0.0,0.0,100,0.00,CLR,,0.00,WeatherDisplay:10.37,2013-08-10 05:47:00,
2013-08-10 01:52:00,76.4,76.4,30.13,SW,229,0.0,0.0,100,0.00,CLR,,0.00,WeatherDisplay:10.37,2013-08-10 05:52:00,
2013-08-10 01:57:00,76.2,76.2,30.13,SW,229,0.0,0.0,100,0.00,CLR,,0.00,WeatherDisplay:10.37,2013-08-10 05:57:00,
2013-08-10 02:02:00,76.0,76.0,30.13,SW,229,0.0,0.0,100,0.00,CLR,,0.00,WeatherDisplay:10.37,2013-08-10 06:02:00,
2013-08-10 02:07:00,76.4,76.4,30.12,SW,229,0.0,0.0,100,0.00,CLR,,0.00,WeatherDisplay:10.37,2013-08-10 06:07:00,
2013-08-10 02:12:00,76.2,76.2,30.12,SW,229,0.0,0.0,100,0.00,CLR,,0.00,WeatherDisplay:10.37,2013-08-10 06:12:00,
2013-08-10 02:17:00,76.0,76.0,30.12,SW,229,0.0,0.0,100,0.00,CLR,,0.00,WeatherDisplay:10.37,2013-08-10 06:17:00,
2013-08-10 02:22:00,76.1,76.1,30.12,SW,229,0.0,0.0,100,0.00,CLR,,0.00,WeatherDisplay:10.37,2013-08-10 06:22:00,
2013-08-10 02:27:00,76.5,76.5,30.12,SW,229,0.0,0.0,100,0.00,CLR,,0.00,WeatherDisplay:10.37,2013-08-10 06:27:00,
2013-08-10 02:32:00,76.2,76.2,30.12,SW,229,0.0,0.0,100,0.00,CLR,,0.00,WeatherDisplay:10.37,2013-08-10 06:32:00,
2013-08-10 02:37:00,76.0,76.0,30.11,SW,229,0.0,0.0,100,0.00,CLR,,0.00,WeatherDisplay:10.37,2013-08-10 06:37:00,
2013-08-10 02:42:00,76.2,76.2,30.11,SW,229,0.0,0.0,100,0.00,CLR,,0.00,WeatherDisplay:10.37,2013-08-10 06:42:00,
2013-08-10 02:47:00,76.3,76.3,30.11,SW,229,0.0,0.0,100,0.00,CLR,,0.00,WeatherDisplay:10.37,2013-08-10 06:47:00,
2013-08-10 02:52:00,76.1,76.1,30.11,SW,229,0.0,0.0,100,0.00,CLR,,0.00,WeatherDisplay:10.37,2013-08-10 06:52:00,
2013-08-10 02:57:00,75.9,75.9,30.11,SW,229,0.0,0.0,100,0.00,CLR,,0.00,WeatherDisplay:10.37,2013-08-10 06:57:00,
2013-08-10 03:02:00,76.4,76.4,30.11,SW,229,0.0,0.0,100,0.00,CLR,,0.00,WeatherDisplay:10.37,2013-08-10 07:02:00,
2013-08-10 03:07:00,76.4,76.4,30.11,SW,229,0.0,0.0,100,0.00,CLR,,0.00,WeatherDisplay:10.37,2013-08-10 07:07:00,
2013-08-10 03:12:00,76.0,76.0,30.11,SW,229,0.0,0.0,100,0.00,CLR,,0.00,WeatherDisplay:10.37,2013-08-10 07:12:00,
2013-08-10 03:17:00,75.7,75.7,30.11,SW,229,0.0,0.0,100,0.00,CLR,,0.00,WeatherDisplay:10.37,2013-08-10 07:17:00,
2013-08-10 03:22:00,76.0,76.0,30.11,SW,229,0.0,0.0,100,0.00,CLR,,0.00,WeatherDisplay:10.37,2013-08-10 07:22:00,
2013-08-10 03:27:00,76.1,76.1,30.10,SW,229,0.0,0.0,100,0.00,CLR,,0.00,WeatherDisplay:10.37,2013-08-10 07:27:00,
2013-08-10 03:32:00,75.9,75.9,30.10,SW,229,0.0,0.0,100,0.00,CLR,,0.00,WeatherDisplay:10.37,2013-08-10 07:32:00,
2013-08-10 03:37:00,75.7,75.7,30.10,SW,229,0.0,0.0,100,0.00,CLR,,0.00,WeatherDisplay:10.37,2013-08-10 07:37:00,
2013-08-10 03:42:00,75.4,75.4,30.10,SW,229,0.0,0.0,100,0.00,CLR,,0.00,WeatherDisplay:10.37,2013-08-10 07:42:00,
2013-08-10 03:47:00,75.9,75.9,30.11,SW,229,0.0,0.0,100,0.00,CLR,,0.00,WeatherDisplay:10.37,2013-08-10 07:47:00,
2013-08-10 03:52:00,75.8,75.8,30.11,SW,229,0.0,0.0,100,0.00,CLR,,0.00,WeatherDisplay:10.37,2013-08-10 07:52:00,
2013-08-10 03:57:00,75.5,75.5,30.11,SW,229,0.0,0.0,100,0.00,CLR,,0.00,WeatherDisplay:10.37,2013-08-10 07:57:00,
2013-08-10 04:02:00,75.3,75.3,30.11,SW,229,0.0,0.0,100,0.00,CLR,,0.00,WeatherDisplay:10.37,2013-08-10 08:02:00,
2013-08-10 04:07:00,75.4,75.4,30.11,SW,229,0.0,0.0,100,0.00,CLR,,0.00,WeatherDisplay:10.37,2013-08-10 08:07:00,
2013-08-10 04:12:00,75.6,75.6,30.11,SW,229,0.0,0.0,100,0.00,CLR,,0.00,WeatherDisplay:10.37,2013-08-10 08:12:00,
2013-08-10 04:17:00,75.5,75.5,30.11,SW,229,0.0,0.0,100,0.00,CLR,,0.00,WeatherDisplay:10.37,2013-08-10 08:17:00,
2013-08-10 04:22:00,75.1,75.1,30.11,SW,229,0.0,0.0,100,0.00,CLR,,0.00,WeatherDisplay:10.37,2013-08-10 08:22:00,
2013-08-10 04:27:00,75.0,75.0,30.11,SW,229,0.0,0.0,100,0.00,CLR,,0.00,WeatherDisplay:10.37,2013-08-10 08:27:00,
2013-08-10 04:32:00,75.4,75.4,30.11,SW,229,0.0,0.0,100,0.00,CLR,,0.00,WeatherDisplay:10.37,2013-08-10 08:32:00,
2013-08-10 04:37:00,75.5,75.5,30.11,SW,229,0.0,0.0,100,0.00,CLR,,0.00,WeatherDisplay:10.37,2013-08-10 08:37:00,
2013-08-10 04:42:00,75.1,75.1,30.11,SW,229,0.0,0.0,100,0.00,CLR,,0.00,WeatherDisplay:10.37,2013-08-10 08:42:00,
2013-08-10 04:47:00,74.8,74.8,30.11,SW,229,0.0,0.0,100,0.00,CLR,,0.00,WeatherDisplay:10.37,2013-08-10 08:47:00,
2013-08-10 04:52:00,74.9,74.9,30.11,SW,229,0.0,0.0,100,0.00,CLR,,0.00,WeatherDisplay:10.37,2013-08-10 08:52:00,
2013-08-10 04:57:00,75.6,75.6,30.11,SW,229,0.0,0.0,100,0.00,CLR,,0.00,WeatherDisplay:10.37,2013-08-10 08:57:00,
2013-08-10 05:02:00,75.3,75.3,30.11,SW,229,0.0,0.0,100,0.00,CLR,,0.00,WeatherDisplay:10.37,2013-08-10 09:02:00,
2013-08-10 05:07:00,74.9,74.9,30.11,SW,229,0.0,0.0,100,0.00,CLR,,0.00,WeatherDisplay:10.37,2013-08-10 09:07:00,
2013-08-10 05:12:00,74.7,74.7,30.11,SW,229,0.0,0.0,100,0.00,CLR,,0.00,WeatherDisplay:10.37,2013-08-10 09:12:00,
2013-08-10 05:17:00,74.6,74.6,30.11,SW,229,0.0,0.0,100,0.00,CLR,,0.00,WeatherDisplay:10.37,2013-08-10 09:17:00,
2013-08-10 05:22:00,75.0,75.0,30.11,SW,229,0.0,0.0,100,0.00,CLR,,0.00,WeatherDisplay:10.37,2013-08-10 09:22:00,
2013-08-10 05:27:00,74.9,74.9,30.11,SW,229,0.0,0.0,100,0.00,CLR,,0.00,WeatherDisplay:10.37,2013-08-10 09:27:00,
2013-08-10 05:32:00,74.8,74.8,30.11,SW,229,0.0,0.0,100,0.00,CLR,,0.00,WeatherDisplay:10.37,2013-08-10 09:32:00,
2013-08-10 05:37:00,74.4,74.4,30.11,SW,229,0.0,0.0,100,0.00,CLR,,0.00,WeatherDisplay:10.37,2013-08-10 09:37:00,
2013-08-10 05:42:00,74.3,74.3,30.11,SW,229,0.0,0.0,100,0.00,CLR,,0.00,WeatherDisplay:10.37,2013-08-10 09:42:00,
2013-08-10 05:47:00,75.1,75.1,30.11,SW,229,0.0,0.0,100,0.00,CLR,,0.00,WeatherDisplay:10.37,2013-08-10 09:47:00,
2013-08-10 05:52:00,75.4,75.4,30.11,SW,229,0.0,0.0,100,0.00,CLR,,0.00,WeatherDisplay:10.37,2013-08-10 09:52:00,
2013-08-10 05:58:00,75.1,75.1,30.11,SW,229,0.0,0.0,100,0.00,CLR,,0.00,WeatherDisplay:10.37,2013-08-10 09:58:00,
2013-08-10 06:03:00,74.6,74.6,30.11,SW,229,0.0,0.0,100,0.00,CLR,,0.00,WeatherDisplay:10.37,2013-08-10 10:03:00,
2013-08-10 06:08:00,74.3,74.3,30.11,SW,229,0.0,0.0,100,0.00,CLR,,0.00,WeatherDisplay:10.37,2013-08-10 10:08:00,
2013-08-10 06:13:00,74.7,74.7,30.11,SW,229,0.0,0.0,100,0.00,CLR,,0.00,WeatherDisplay:10.37,2013-08-10 10:13:00,
2013-08-10 06:18:00,74.8,74.8,30.11,SW,229,0.0,0.0,100,0.00,CLR,,0.00,WeatherDisplay:10.37,2013-08-10 10:18:00,
2013-08-10 06:23:00,74.4,74.4,30.11,SW,229,0.0,0.0,100,0.00,CLR,,0.00,WeatherDisplay:10.37,2013-08-10 10:23:00,
2013-08-10 06:28:00,74.3,74.3,30.11,SW,229,0.0,0.0,100,0.00,CLR,,0.00,WeatherDisplay:10.37,2013-08-10 10:28:00,
2013-08-10 06:33:00,74.0,74.0,30.11,SW,229,0.0,0.0,100,0.00,CLR,,0.00,WeatherDisplay:10.37,2013-08-10 10:33:00,
2013-08-10 06:38:00,74.4,74.4,30.12,SW,229,0.0,0.0,100,0.00,CLR,,0.00,WeatherDisplay:10.37,2013-08-10 10:38:00,
2013-08-10 06:43:00,74.4,74.4,30.12,SW,229,0.0,0.0,100,0.00,CLR,,0.00,WeatherDisplay:10.37,2013-08-10 10:43:00,
2013-08-10 06:48:00,74.2,74.2,30.12,SW,229,0.0,0.0,100,0.00,CLR,,0.00,WeatherDisplay:10.37,2013-08-10 10:48:00,
2013-08-10 06:53:00,74.1,74.1,30.12,SW,229,0.0,0.0,100,0.00,CLR,,0.00,WeatherDisplay:10.37,2013-08-10 10:53:00,
2013-08-10 06:58:00,74.1,74.1,30.12,SW,229,0.0,0.0,100,0.00,CLR,,0.00,WeatherDisplay:10.37,2013-08-10 10:58:00,
2013-08-10 07:03:00,75.0,75.0,30.12,SW,229,0.0,0.0,100,0.00,CLR,,0.00,WeatherDisplay:10.37,2013-08-10 11:03:00,
2013-08-10 07:08:00,75.2,75.2,30.12,SW,229,0.0,0.0,100,0.00,CLR,,0.00,WeatherDisplay:10.37,2013-08-10 11:08:00,
2013-08-10 07:13:00,75.0,75.0,30.12,SW,229,0.0,0.0,100,0.00,CLR,,0.00,WeatherDisplay:10.37,2013-08-10 11:13:00,
2013-08-10 07:18:00,74.8,74.8,30.12,SW,229,0.0,0.0,100,0.00,CLR,,0.00,WeatherDisplay:10.37,2013-08-10 11:18:00,
2013-08-10 07:23:00,75.4,75.4,30.13,SW,229,0.0,0.0,100,0.00,CLR,,0.00,WeatherDisplay:10.37,2013-08-10 11:23:00,
2013-08-10 07:28:00,75.9,75.9,30.13,SW,229,0.0,0.0,100,0.00,CLR,,0.00,WeatherDisplay:10.37,2013-08-10 11:28:00,
2013-08-10 07:33:00,75.9,75.9,30.13,SW,229,0.0,0.0,100,0.00,CLR,,0.00,WeatherDisplay:10.37,2013-08-10 11:33:00,
2013-08-10 07:38:00,75.8,75.8,30.13,SW,229,0.0,0.0,100,0.00,CLR,,0.00,WeatherDisplay:10.37,2013-08-10 11:38:00,
2013-08-10 07:43:00,75.7,75.7,30.13,SW,229,0.0,0.0,100,0.00,CLR,,0.00,WeatherDisplay:10.37,2013-08-10 11:43:00,
2013-08-10 07:48:00,76.3,76.3,30.13,SW,229,0.0,0.0,100,0.00,CLR,,0.00,WeatherDisplay:10.37,2013-08-10 11:48:00,
2013-08-10 07:53:00,76.4,76.4,30.13,SW,229,0.0,0.0,100,0.00,CLR,,0.00,WeatherDisplay:10.37,2013-08-10 11:53:00,
2013-08-10 07:58:00,76.1,76.1,30.13,SW,229,0.0,0.0,100,0.00,CLR,,0.00,WeatherDisplay:10.37,2013-08-10 11:58:00,
2013-08-10 08:03:00,76.1,76.1,30.13,SW,229,0.0,0.0,100,0.00,CLR,,0.00,WeatherDisplay:10.37,2013-08-10 12:03:00,
2013-08-10 08:08:00,76.1,76.1,30.13,SW,229,0.0,0.0,100,0.00,CLR,,0.00,WeatherDisplay:10.37,2013-08-10 12:08:00,
2013-08-10 08:13:00,76.1,76.1,30.13,SW,229,0.0,0.0,100,0.00,CLR,,0.00,WeatherDisplay:10.37,2013-08-10 12:13:00,
2013-08-10 08:18:00,76.1,76.1,30.13,SW,229,0.0,0.0,100,0.00,CLR,,0.00,WeatherDisplay:10.37,2013-08-10 12:18:00,
2013-08-10 08:23:00,76.1,76.1,30.14,ESE,123,0.0,0.0,100,0.00,CLR,,0.00,WeatherDisplay:10.37,2013-08-10 12:23:00,
2013-08-10 08:28:00,76.1,76.1,30.14,ESE,123,0.0,0.0,100,0.00,CLR,,0.00,WeatherDisplay:10.37,2013-08-10 12:28:00,
2013-08-10 08:33:00,76.1,76.1,30.14,ESE,123,0.0,0.0,100,0.00,CLR,,0.00,WeatherDisplay:10.37,2013-08-10 12:33:00,
2013-08-10 08:38:00,76.2,76.2,30.14,ESE,123,0.0,0.0,100,0.00,CLR,,0.00,WeatherDisplay:10.37,2013-08-10 12:38:00,
2013-08-10 08:43:00,76.2,76.2,30.14,ESE,123,0.0,0.0,100,0.00,CLR,,0.00,WeatherDisplay:10.37,2013-08-10 12:43:00,
2013-08-10 08:48:00,76.2,76.2,30.14,ESE,123,0.0,0.0,100,0.00,CLR,,0.00,WeatherDisplay:10.37,2013-08-10 12:48:00,
2013-08-10 08:53:00,76.3,76.3,30.14,ESE,123,0.0,0.0,100,0.00,CLR,,0.00,WeatherDisplay:10.37,2013-08-10 12:53:00,
2013-08-10 08:58:00,76.6,76.6,30.14,ESE,123,0.0,0.0,100,0.00,CLR,,0.00,WeatherDisplay:10.37,2013-08-10 12:58:00,
2013-08-10 09:03:00,76.7,76.7,30.14,ESE,123,0.0,0.0,100,0.00,CLR,,0.00,WeatherDisplay:10.37,2013-08-10 13:03:00,
2013-08-10 09:08:00,77.3,77.3,30.14,ESE,123,0.0,0.0,100,0.00,CLR,,0.00,WeatherDisplay:10.37,2013-08-10 13:08:00,
2013-08-10 09:13:00,78.1,78.1,30.14,ESE,123,0.0,0.0,100,0.00,CLR,,0.00,WeatherDisplay:10.37,2013-08-10 13:13:00,
2013-08-10 09:18:00,79.2,79.2,30.14,ESE,123,0.0,0.0,100,0.00,CLR,,0.00,WeatherDisplay:10.37,2013-08-10 13:18:00,
2013-08-10 09:23:00,79.8,79.8,30.14,SSE,157,2.3,2.3,100,0.00,CLR,,0.00,WeatherDisplay:10.37,2013-08-10 13:23:00,
2013-08-10 09:28:00,80.0,80.0,30.14,SSW,196,0.0,0.0,100,0.00,CLR,,0.00,WeatherDisplay:10.37,2013-08-10 13:28:00,
2013-08-10 09:33:00,80.3,80.3,30.14,SE,127,0.0,0.0,100,0.00,CLR,,0.00,WeatherDisplay:10.37,2013-08-10 13:33:00,
2013-08-10 09:38:00,80.5,80.5,30.14,South,171,2.3,2.3,100,0.00,CLR,,0.00,WeatherDisplay:10.37,2013-08-10 13:38:00,
2013-08-10 09:43:00,80.4,80.4,30.14,SSE,154,2.3,2.3,100,0.00,CLR,,0.00,WeatherDisplay:10.37,2013-08-10 13:43:00,
2013-08-10 09:48:00,81.4,81.4,30.14,ESE,109,3.5,3.5,100,0.00,CLR,,0.00,WeatherDisplay:10.37,2013-08-10 13:48:00,
2013-08-10 09:53:00,82.6,82.3,30.14,WSW,250,0.0,0.0,99,0.00,CLR,,0.00,WeatherDisplay:10.37,2013-08-10 13:53:00,
2013-08-10 09:58:00,82.8,82.2,30.14,ESE,102,0.0,0.0,98,0.00,CLR,,0.00,WeatherDisplay:10.37,2013-08-10 13:58:00,
2013-08-10 10:03:00,82.4,81.8,30.14,West,265,3.5,3.5,98,0.00,CLR,,0.00,WeatherDisplay:10.37,2013-08-10 14:03:00,
2013-08-10 10:08:00,82.0,81.7,30.14,West,267,6.9,6.9,99,0.00,CLR,,0.00,WeatherDisplay:10.37,2013-08-10 14:08:00,
2013-08-10 10:13:00,82.9,82.0,30.14,SSW,206,1.2,0.0,97,0.00,CLR,,0.00,WeatherDisplay:10.37,2013-08-10 14:13:00,
2013-08-10 10:18:00,83.4,82.1,30.14,SW,229,3.3,3.3,96,0.00,CLR,,0.00,WeatherDisplay:10.37,2013-08-10 14:18:00,
2013-08-10 10:23:00,83.1,81.8,30.14,South,171,3.5,3.5,96,0.00,CLR,,0.00,WeatherDisplay:10.37,2013-08-10 14:23:00,
2013-08-10 10:28:00,83.2,81.9,30.14,WSW,253,4.6,4.6,96,0.00,CLR,,0.00,WeatherDisplay:10.37,2013-08-10 14:28:00,
2013-08-10 10:33:00,84.3,81.4,30.14,ESE,123,5.8,5.8,91,0.00,CLR,,0.00,WeatherDisplay:10.37,2013-08-10 14:33:00,
2013-08-10 10:38:00,84.3,82.1,30.14,SW,233,3.5,3.5,93,0.00,CLR,,0.00,WeatherDisplay:10.37,2013-08-10 14:38:00,
2013-08-10 10:43:00,83.7,81.8,30.14,SSW,202,4.6,4.6,94,0.00,CLR,,0.00,WeatherDisplay:10.37,2013-08-10 14:43:00,
2013-08-10 10:49:00,83.4,82.1,30.14,WNW,294,4.2,4.2,96,0.00,CLR,,0.00,WeatherDisplay:10.37,2013-08-10 14:49:00,
2013-08-10 10:54:00,83.2,81.9,30.14,WNW,296,0.0,1.2,96,0.00,CLR,,0.00,WeatherDisplay:10.37,2013-08-10 14:54:00,
2013-08-10 10:59:00,83.1,81.8,30.14,WSW,240,4.6,4.6,96,0.00,CLR,,0.00,WeatherDisplay:10.37,2013-08-10 14:59:00,
2013-08-10 11:04:00,83.0,81.7,30.14,SSE,164,1.2,1.2,96,0.00,CLR,,0.00,WeatherDisplay:10.37,2013-08-10 15:04:00,
2013-08-10 11:09:00,83.1,82.2,30.14,SSE,161,3.5,3.5,97,0.00,CLR,,0.00,WeatherDisplay:10.37,2013-08-10 15:09:00,
2013-08-10 11:14:00,83.4,82.5,30.14,SSE,147,3.5,3.5,97,0.00,CLR,,0.00,WeatherDisplay:10.37,2013-08-10 15:14:00,
2013-08-10 11:19:00,83.5,82.2,30.14,SE,134,0.0,0.0,96,0.00,CLR,,0.00,WeatherDisplay:10.37,2013-08-10 15:19:00,
2013-08-10 11:24:00,84.0,82.7,30.14,ESE,103,0.0,0.0,96,0.00,CLR,,0.00,WeatherDisplay:10.37,2013-08-10 15:24:00,
2013-08-10 11:29:00,84.0,81.8,30.14,WSW,253,3.5,3.5,93,0.00,CLR,,0.00,WeatherDisplay:10.37,2013-08-10 15:29:00,
2013-08-10 11:34:00,84.2,82.0,30.14,NW,304,2.6,3.2,93,0.00,CLR,,0.00,WeatherDisplay:10.37,2013-08-10 15:34:00,
2013-08-10 11:39:00,84.2,82.0,30.14,South,184,1.2,0.0,93,0.00,CLR,,0.00,WeatherDisplay:10.37,2013-08-10 15:39:00,
2013-08-10 11:44:00,84.4,81.8,30.14,ENE,78,2.3,2.3,92,0.00,CLR,,0.00,WeatherDisplay:10.37,2013-08-10 15:44:00,
2013-08-10 11:49:00,84.4,81.5,30.14,SE,130,1.2,1.2,91,0.00,CLR,,0.00,WeatherDisplay:10.37,2013-08-10 15:49:00,
2013-08-10 11:54:00,84.7,81.4,30.14,NW,312,4.6,4.6,90,0.00,CLR,,0.00,WeatherDisplay:10.37,2013-08-10 15:54:00,
2013-08-10 11:59:00,84.7,81.1,30.14,NW,315,2.3,2.3,89,0.00,CLR,,0.00,WeatherDisplay:10.37,2013-08-10 15:59:00,
2013-08-10 12:04:00,85.0,81.7,30.14,SSE,165,2.3,2.3,90,0.00,CLR,,0.00,WeatherDisplay:10.37,2013-08-10 16:04:00,
2013-08-10 12:09:00,85.1,80.4,30.14,SSW,193,6.9,6.9,86,0.00,CLR,,0.00,WeatherDisplay:10.37,2013-08-10 16:09:00,
2013-08-10 12:14:00,85.4,80.7,30.13,SSE,168,0.0,0.0,86,0.00,CLR,,0.00,WeatherDisplay:10.37,2013-08-10 16:14:00,
2013-08-10 12:19:00,85.9,80.1,30.13,SSE,167,1.2,1.2,83,0.00,CLR,,0.00,WeatherDisplay:10.37,2013-08-10 16:19:00,
2013-08-10 12:24:00,86.2,80.1,30.13,SSE,161,1.4,1.4,82,0.00,CLR,,0.00,WeatherDisplay:10.37,2013-08-10 16:24:00,
2013-08-10 12:29:00,86.6,80.4,30.13,NW,304,1.2,1.2,82,0.00,CLR,,0.00,WeatherDisplay:10.37,2013-08-10 16:29:00,
2013-08-10 12:34:00,88.4,79.1,30.13,NW,304,0.0,0.0,74,0.00,CLR,,0.00,WeatherDisplay:10.37,2013-08-10 16:34:00,
2013-08-10 12:39:00,89.0,78.8,30.12,ENE,64,1.6,1.6,72,0.00,CLR,,0.00,WeatherDisplay:10.37,2013-08-10 16:39:00,
2013-08-10 12:44:00,90.0,78.9,30.12,SE,143,3.5,3.5,70,0.00,CLR,,0.00,WeatherDisplay:10.37,2013-08-10 16:44:00,
2013-08-10 12:49:00,91.5,78.5,30.12,SE,126,0.0,0.0,66,0.00,CLR,,0.00,WeatherDisplay:10.37,2013-08-10 16:49:00,
2013-08-10 12:54:00,92.0,77.1,30.11,ESE,103,1.2,1.2,62,0.00,CLR,,0.00,WeatherDisplay:10.37,2013-08-10 16:54:00,
2013-08-10 12:59:00,92.6,76.2,30.11,East,85,4.6,4.6,59,0.00,CLR,,0.00,WeatherDisplay:10.37,2013-08-10 16:59:00,
2013-08-10 13:04:00,92.7,75.8,30.11,WSW,239,4.6,4.6,58,0.00,CLR,,0.00,WeatherDisplay:10.37,2013-08-10 17:04:00,
2013-08-10 13:09:00,93.1,76.1,30.11,SSW,195,0.0,0.0,58,0.00,CLR,,0.00,WeatherDisplay:10.37,2013-08-10 17:09:00,
2013-08-10 13:14:00,93.2,76.2,30.11,SE,130,2.3,2.3,58,0.00,CLR,,0.00,WeatherDisplay:10.37,2013-08-10 17:14:00,
2013-08-10 13:19:00,93.7,75.1,30.12,South,182,5.8,5.8,55,0.00,CLR,,0.00,WeatherDisplay:10.37,2013-08-10 17:19:00,
2013-08-10 13:24:00,93.4,75.9,30.12,SSW,192,1.2,1.2,57,0.00,CLR,,0.00,WeatherDisplay:10.37,2013-08-10 17:24:00,
2013-08-10 13:29:00,93.5,74.9,30.12,SE,144,3.5,3.5,55,0.00,CLR,,0.00,WeatherDisplay:10.37,2013-08-10 17:29:00,
2013-08-10 13:34:00,93.4,74.8,30.11,SSW,213,6.9,6.9,55,0.00,CLR,,0.00,WeatherDisplay:10.37,2013-08-10 17:34:00,
2013-08-10 13:39:00,93.8,75.7,30.11,WSW,248,4.6,4.6,56,0.00,CLR,,0.00,WeatherDisplay:10.37,2013-08-10 17:39:00,
2013-08-10 13:44:00,94.1,74.4,30.11,South,169,2.3,0.0,53,0.00,CLR,,0.00,WeatherDisplay:10.37,2013-08-10 17:44:00,
2013-08-10 13:49:00,94.2,74.4,30.11,SSE,157,3.5,3.5,53,0.00,CLR,,0.00,WeatherDisplay:10.37,2013-08-10 17:49:00,
2013-08-10 13:54:00,94.0,74.8,30.11,SW,216,2.3,2.3,54,0.00,CLR,,0.00,WeatherDisplay:10.37,2013-08-10 17:54:00,
2013-08-10 13:59:00,94.4,74.1,30.11,SW,217,1.2,0.0,52,0.00,CLR,,0.00,WeatherDisplay:10.37,2013-08-10 17:59:00,
2013-08-10 14:04:00,94.9,73.4,30.11,South,182,3.5,0.0,50,0.00,CLR,,0.00,WeatherDisplay:10.37,2013-08-10 18:04:00,
2013-08-10 14:09:00,94.7,73.2,30.12,WSW,237,6.9,6.9,50,0.00,CLR,,0.00,WeatherDisplay:10.37,2013-08-10 18:09:00,
2013-08-10 14:14:00,94.9,72.8,30.12,ESE,106,5.8,5.8,49,0.00,CLR,,0.00,WeatherDisplay:10.37,2013-08-10 18:14:00,
2013-08-10 14:19:00,94.8,72.0,30.12,SSW,206,3.5,3.5,48,0.00,CLR,,0.00,WeatherDisplay:10.37,2013-08-10 18:19:00,
2013-08-10 14:24:00,94.4,72.9,30.14,NW,311,5.7,5.7,50,0.00,CLR,,0.00,WeatherDisplay:10.37,2013-08-10 18:24:00,
2013-08-10 14:29:00,92.4,70.5,30.14,NW,313,9.2,9.2,49,0.00,CLR,,0.00,WeatherDisplay:10.37,2013-08-10 18:29:00,
2013-08-10 14:34:00,89.9,69.9,30.14,NW,313,9.2,9.2,52,0.00,CLR,,0.00,WeatherDisplay:10.37,2013-08-10 18:34:00,
2013-08-10 14:39:00,88.1,69.9,30.15,NW,323,6.9,6.9,55,0.00,CLR,,0.00,WeatherDisplay:10.37,2013-08-10 18:39:00,
2013-08-10 14:44:00,87.2,70.6,30.16,NW,305,5.8,5.8,58,0.00,CLR,,0.00,WeatherDisplay:10.37,2013-08-10 18:44:00,
2013-08-10 14:49:00,86.3,71.3,30.17,NW,309,9.2,9.2,61,0.00,CLR,,0.00,WeatherDisplay:10.37,2013-08-10 18:49:00,
2013-08-10 14:54:00,85.0,74.1,30.17,WNW,285,5.8,5.8,70,0.04,RA,,0.07,WeatherDisplay:10.37,2013-08-10 18:54:00,
2013-08-10 15:00:00,82.4,76.7,30.15,West,271,4.6,4.6,83,0.22,RA,,0.22,WeatherDisplay:10.37,2013-08-10 19:00:00,
2013-08-10 15:05:00,80.5,77.6,30.15,NW,304,0.0,0.0,91,0.23,RA,,0.23,WeatherDisplay:10.37,2013-08-10 19:05:00,
2013-08-10 15:10:00,80.4,78.2,30.15,NW,304,0.0,0.0,93,0.23,RA,,0.23,WeatherDisplay:10.37,2013-08-10 19:10:00,
2013-08-10 15:15:00,80.5,78.9,30.14,NW,304,0.0,0.0,95,0.23,CLR,,0.23,WeatherDisplay:10.37,2013-08-10 19:15:00,
2013-08-10 15:20:00,81.4,79.8,30.14,NW,304,0.0,0.0,95,0.23,CLR,,0.23,WeatherDisplay:10.37,2013-08-10 19:20:00,
2013-08-10 15:25:00,81.8,79.9,30.14,NW,304,0.0,0.0,94,0.23,CLR,,0.23,WeatherDisplay:10.37,2013-08-10 19:25:00,
2013-08-10 15:30:00,82.4,80.5,30.14,NW,304,0.0,0.0,94,0.23,CLR,,0.23,WeatherDisplay:10.37,2013-08-10 19:30:00,
2013-08-10 15:35:00,82.8,80.2,30.13,NW,304,1.2,1.2,92,0.23,CLR,,0.23,WeatherDisplay:10.37,2013-08-10 19:35:00,
2013-08-10 15:40:00,83.2,80.3,30.13,South,189,0.0,0.0,91,0.23,CLR,,0.23,WeatherDisplay:10.37,2013-08-10 19:40:00,
2013-08-10 15:45:00,83.5,80.6,30.13,South,189,0.0,0.0,91,0.23,CLR,,0.23,WeatherDisplay:10.37,2013-08-10 19:45:00,
2013-08-10 15:50:00,83.8,81.2,30.12,South,189,0.0,0.0,92,0.23,CLR,,0.23,WeatherDisplay:10.37,2013-08-10 19:50:00,
2013-08-10 15:55:00,83.7,79.1,30.12,South,189,0.0,0.0,86,0.15,CLR,,0.23,WeatherDisplay:10.37,2013-08-10 19:55:00,
2013-08-10 16:00:00,83.5,78.9,30.11,South,189,0.0,0.0,86,0.01,CLR,,0.23,WeatherDisplay:10.37,2013-08-10 20:00:00,
2013-08-10 16:05:00,83.1,79.9,30.11,South,189,0.0,0.0,90,0.00,CLR,,0.23,WeatherDisplay:10.37,2013-08-10 20:05:00,
2013-08-10 16:10:00,82.6,80.4,30.12,South,189,0.0,0.0,93,0.00,CLR,,0.23,WeatherDisplay:10.37,2013-08-10 20:10:00,
2013-08-10 16:15:00,82.8,79.6,30.11,South,189,0.0,0.0,90,0.00,CLR,,0.23,WeatherDisplay:10.37,2013-08-10 20:15:00,
2013-08-10 16:20:00,82.5,79.6,30.11,South,189,0.0,0.0,91,0.00,CLR,,0.23,WeatherDisplay:10.37,2013-08-10 20:20:00,
2013-08-10 16:25:00,82.4,79.2,30.11,South,189,0.0,0.0,90,0.00,CLR,,0.23,WeatherDisplay:10.37,2013-08-10 20:25:00,
2013-08-10 16:30:00,82.5,80.6,30.10,South,189,0.0,0.0,94,0.00,CLR,,0.23,WeatherDisplay:10.37,2013-08-10 20:30:00,
2013-08-10 16:35:00,83.1,80.2,30.10,South,189,0.0,0.0,91,0.00,CLR,,0.23,WeatherDisplay:10.37,2013-08-10 20:35:00,
2013-08-10 16:40:00,83.3,80.4,30.10,South,189,0.0,0.0,91,0.00,CLR,,0.23,WeatherDisplay:10.37,2013-08-10 20:40:00,
2013-08-10 16:45:00,83.7,80.5,30.10,South,189,0.0,0.0,90,0.00,CLR,,0.23,WeatherDisplay:10.37,2013-08-10 20:45:00,
2013-08-10 16:50:00,83.9,80.6,30.10,South,189,0.0,0.0,90,0.00,CLR,,0.23,WeatherDisplay:10.37,2013-08-10 20:50:00,
2013-08-10 16:55:00,83.8,78.4,30.11,South,189,0.0,0.0,84,0.00,CLR,,0.23,WeatherDisplay:10.37,2013-08-10 20:55:00,
2013-08-10 17:00:00,83.7,79.8,30.11,WNW,287,0.0,0.0,88,0.00,CLR,,0.23,WeatherDisplay:10.37,2013-08-10 21:00:00,
2013-08-10 17:05:00,83.7,78.7,30.11,WNW,287,0.0,0.0,85,0.00,CLR,,0.23,WeatherDisplay:10.37,2013-08-10 21:05:00,
2013-08-10 17:10:00,83.8,78.4,30.11,WNW,287,0.0,0.0,84,0.00,CLR,,0.23,WeatherDisplay:10.37,2013-08-10 21:10:00,
2013-08-10 17:15:00,83.8,80.2,30.11,WNW,287,0.0,0.0,89,0.00,CLR,,0.23,WeatherDisplay:10.37,2013-08-10 21:15:00,
2013-08-10 17:20:00,83.9,78.5,30.11,WNW,287,0.0,0.0,84,0.00,CLR,,0.23,WeatherDisplay:10.37,2013-08-10 21:20:00,
2013-08-10 17:25:00,84.1,76.5,30.11,WNW,287,0.0,0.0,78,0.00,CLR,,0.23,WeatherDisplay:10.37,2013-08-10 21:25:00,
2013-08-10 17:30:00,84.5,75.3,30.12,WNW,287,0.0,0.0,74,0.00,CLR,,0.23,WeatherDisplay:10.37,2013-08-10 21:30:00,
2013-08-10 17:35:00,84.9,76.5,30.11,WNW,287,0.0,0.0,76,0.00,CLR,,0.23,WeatherDisplay:10.37,2013-08-10 21:35:00,
2013-08-10 17:40:00,85.1,75.5,30.12,WNW,287,0.0,0.0,73,0.00,CLR,,0.23,WeatherDisplay:10.37,2013-08-10 21:40:00,
2013-08-10 17:45:00,85.0,76.2,30.12,WNW,287,0.0,0.0,75,0.00,CLR,,0.23,WeatherDisplay:10.37,2013-08-10 21:45:00,
2013-08-10 17:50:00,85.6,75.9,30.12,WNW,287,0.0,0.0,73,0.00,CLR,,0.23,WeatherDisplay:10.37,2013-08-10 21:50:00,
2013-08-10 17:55:00,86.0,77.5,30.12,WNW,287,0.0,0.0,76,0.00,CLR,,0.23,WeatherDisplay:10.37,2013-08-10 21:55:00,
2013-08-10 18:00:00,85.5,78.6,30.12,WNW,287,0.0,0.0,80,0.00,CLR,,0.23,WeatherDisplay:10.37,2013-08-10 22:00:00,
2013-08-10 18:05:00,85.3,79.2,30.12,WNW,287,0.0,0.0,82,0.00,CLR,,0.23,WeatherDisplay:10.37,2013-08-10 22:05:00,
2013-08-10 18:10:00,85.3,78.8,30.11,WNW,287,0.0,0.0,81,0.00,CLR,,0.23,WeatherDisplay:10.37,2013-08-10 22:10:00,
2013-08-10 18:15:00,85.5,79.4,30.12,WNW,287,0.0,0.0,82,0.00,CLR,,0.23,WeatherDisplay:10.37,2013-08-10 22:15:00,
2013-08-10 18:20:00,85.5,80.1,30.12,WNW,287,0.0,0.0,84,0.00,CLR,,0.23,WeatherDisplay:10.37,2013-08-10 22:20:00,
2013-08-10 18:25:00,85.5,80.8,30.12,WNW,287,0.0,0.0,86,0.00,CLR,,0.23,WeatherDisplay:10.37,2013-08-10 22:25:00,
2013-08-10 18:30:00,85.5,80.8,30.12,WNW,287,0.0,0.0,86,0.00,CLR,,0.23,WeatherDisplay:10.37,2013-08-10 22:30:00,
2013-08-10 18:35:00,85.1,82.5,30.12,WNW,287,0.0,0.0,92,0.00,CLR,,0.23,WeatherDisplay:10.37,2013-08-10 22:35:00,
2013-08-10 18:40:00,84.9,83.0,30.12,WNW,287,0.0,0.0,94,0.00,CLR,,0.23,WeatherDisplay:10.37,2013-08-10 22:40:00,
2013-08-10 18:45:00,84.6,82.7,30.12,WNW,287,0.0,0.0,94,0.00,CLR,,0.23,WeatherDisplay:10.37,2013-08-10 22:45:00,
2013-08-10 18:50:00,84.4,82.8,30.12,WNW,287,0.0,0.0,95,0.00,CLR,,0.23,WeatherDisplay:10.37,2013-08-10 22:50:00,
2013-08-10 18:55:00,83.9,81.7,30.12,WNW,287,0.0,0.0,93,0.00,CLR,,0.23,WeatherDisplay:10.37,2013-08-10 22:55:00,
2013-08-10 19:00:00,83.6,81.4,30.12,WNW,287,0.0,0.0,93,0.00,CLR,,0.23,WeatherDisplay:10.37,2013-08-10 23:00:00,
2013-08-10 19:05:00,83.1,81.5,30.13,WNW,287,0.0,0.0,95,0.00,CLR,,0.23,WeatherDisplay:10.37,2013-08-10 23:05:00,
2013-08-10 19:10:00,82.9,81.3,30.13,WNW,287,0.0,0.0,95,0.00,CLR,,0.23,WeatherDisplay:10.37,2013-08-10 23:10:00,
2013-08-10 19:15:00,82.8,81.5,30.13,WNW,287,0.0,0.0,96,0.00,CLR,,0.23,WeatherDisplay:10.37,2013-08-10 23:15:00,
2013-08-10 19:21:00,82.6,81.0,30.14,WNW,287,0.0,0.0,95,0.00,CLR,,0.23,WeatherDisplay:10.37,2013-08-10 23:21:00,
2013-08-10 19:26:00,82.4,81.1,30.14,WNW,287,0.0,0.0,96,0.00,CLR,,0.23,WeatherDisplay:10.37,2013-08-10 23:26:00,
2013-08-10 19:31:00,82.1,80.8,30.14,WNW,287,0.0,0.0,96,0.00,CLR,,0.23,WeatherDisplay:10.37,2013-08-10 23:31:00,
2013-08-10 19:36:00,81.8,80.9,30.15,WNW,287,0.0,0.0,97,0.00,CLR,,0.23,WeatherDisplay:10.37,2013-08-10 23:36:00,
2013-08-10 19:41:00,82.5,80.9,30.14,SW,217,0.0,0.0,95,0.00,CLR,,0.23,WeatherDisplay:10.37,2013-08-10 23:41:00,
2013-08-10 19:46:00,83.2,80.6,30.14,SW,230,2.3,2.3,92,0.00,CLR,,0.23,WeatherDisplay:10.37,2013-08-10 23:46:00,
2013-08-10 19:51:00,83.5,80.6,30.15,West,270,8.1,8.1,91,0.00,CLR,,0.23,WeatherDisplay:10.37,2013-08-10 23:51:00,
2013-08-10 19:56:00,83.3,79.4,30.16,SSE,162,3.5,3.5,88,0.00,CLR,,0.23,WeatherDisplay:10.37,2013-08-10 23:56:00,
2013-08-10 20:01:00,83.3,78.3,30.15,SSW,200,3.5,3.5,85,0.00,CLR,,0.23,WeatherDisplay:10.37,2013-08-11 00:01:00,
2013-08-10 20:06:00,83.4,77.7,30.15,West,277,9.2,9.2,83,0.00,CLR,,0.23,WeatherDisplay:10.37,2013-08-11 00:06:00,
2013-08-10 20:11:00,83.4,77.3,30.15,WSW,239,1.2,1.2,82,0.00,CLR,,0.23,WeatherDisplay:10.37,2013-08-11 00:11:00,
2013-08-10 20:16:00,83.4,78.4,30.15,WSW,240,0.0,0.0,85,0.00,CLR,,0.23,WeatherDisplay:10.37,2013-08-11 00:16:00,
2013-08-10 20:21:00,82.8,78.5,30.16,WNW,299,2.3,2.3,87,0.00,CLR,,0.23,WeatherDisplay:10.37,2013-08-11 00:21:00,
2013-08-10 20:26:00,82.3,77.7,30.16,WNW,282,0.0,0.0,86,0.00,CLR,,0.23,WeatherDisplay:10.37,2013-08-11 00:26:00,
2013-08-10 20:31:00,81.7,77.5,30.16,NNW,329,2.3,2.3,87,0.00,CLR,,0.23,WeatherDisplay:10.37,2013-08-11 00:31:00,
2013-08-10 20:36:00,81.2,77.3,30.16,WNW,295,2.3,2.3,88,0.00,CLR,,0.23,WeatherDisplay:10.37,2013-08-11 00:36:00,
2013-08-10 20:41:00,80.8,76.6,30.16,North,356,3.5,3.5,87,0.00,CLR,,0.23,WeatherDisplay:10.37,2013-08-11 00:41:00,
2013-08-10 20:46:00,80.6,76.4,30.16,NNW,337,3.5,3.5,87,0.00,CLR,,0.23,WeatherDisplay:10.37,2013-08-11 00:46:00,
2013-08-10 20:51:00,80.5,75.2,30.17,NNW,337,0.0,0.0,84,0.00,CLR,,0.23,WeatherDisplay:10.37,2013-08-11 00:51:00,
2013-08-10 20:56:00,80.5,74.9,30.16,NNW,337,0.0,0.0,83,0.00,CLR,,0.23,WeatherDisplay:10.37,2013-08-11 00:56:00,
2013-08-10 21:01:00,79.7,75.1,30.16,NNW,337,0.0,0.0,86,0.00,CLR,,0.23,WeatherDisplay:10.37,2013-08-11 01:01:00,
2013-08-10 21:06:00,79.1,75.6,30.16,NNW,337,0.0,0.0,89,0.00,CLR,,0.23,WeatherDisplay:10.37,2013-08-11 01:06:00,
2013-08-10 21:11:00,78.8,76.3,30.16,NNW,337,0.0,0.0,92,0.00,CLR,,0.23,WeatherDisplay:10.37,2013-08-11 01:11:00,
2013-08-10 21:16:00,79.0,75.8,30.16,NNW,337,0.0,0.0,90,0.00,CLR,,0.23,WeatherDisplay:10.37,2013-08-11 01:16:00,
2013-08-10 21:21:00,78.3,76.7,30.16,NNW,337,0.0,0.0,95,0.00,CLR,,0.23,WeatherDisplay:10.37,2013-08-11 01:21:00,
2013-08-10 21:26:00,78.0,76.8,30.16,NNW,337,0.0,0.0,96,0.00,CLR,,0.23,WeatherDisplay:10.37,2013-08-11 01:26:00,
2013-08-10 21:31:00,78.2,77.0,30.16,NNW,337,0.0,0.0,96,0.00,CLR,,0.23,WeatherDisplay:10.37,2013-08-11 01:31:00,
2013-08-10 21:36:00,78.0,76.8,30.16,NNW,337,0.0,0.0,96,0.00,CLR,,0.23,WeatherDisplay:10.37,2013-08-11 01:36:00,
2013-08-10 21:41:00,77.2,76.3,30.16,NNW,337,0.0,0.0,97,0.00,CLR,,0.23,WeatherDisplay:10.37,2013-08-11 01:41:00,
2013-08-10 21:46:00,76.8,76.2,30.16,NNW,337,0.0,0.0,98,0.00,CLR,,0.23,WeatherDisplay:10.37,2013-08-11 01:46:00,
2013-08-10 21:51:00,76.9,76.3,30.16,NNW,337,0.0,0.0,98,0.00,CLR,,0.23,WeatherDisplay:10.37,2013-08-11 01:51:00,
2013-08-10 21:56:00,77.0,76.4,30.16,NNW,337,0.0,0.0,98,0.00,CLR,,0.23,WeatherDisplay:10.37,2013-08-11 01:56:00,
2013-08-10 22:01:00,76.7,76.1,30.16,NNW,337,0.0,0.0,98,0.00,CLR,,0.23,WeatherDisplay:10.37,2013-08-11 02:01:00,
2013-08-10 22:06:00,76.3,76.0,30.16,NNW,337,0.0,0.0,99,0.00,CLR,,0.23,WeatherDisplay:10.37,2013-08-11 02:06:00,
2013-08-10 22:11:00,76.1,76.1,30.16,NNW,337,0.0,0.0,100,0.00,CLR,,0.23,WeatherDisplay:10.37,2013-08-11 02:11:00,
2013-08-10 22:16:00,75.8,75.8,30.16,NNW,337,0.0,0.0,100,0.00,CLR,,0.23,WeatherDisplay:10.37,2013-08-11 02:16:00,
2013-08-10 22:21:00,75.7,75.7,30.16,NNW,337,0.0,0.0,100,0.00,CLR,,0.23,WeatherDisplay:10.37,2013-08-11 02:21:00,
2013-08-10 22:26:00,75.4,75.4,30.16,NNW,337,0.0,0.0,100,0.00,CLR,,0.23,WeatherDisplay:10.37,2013-08-11 02:26:00,
2013-08-10 22:31:00,75.3,75.3,30.16,NNW,337,0.0,0.0,100,0.00,CLR,,0.23,WeatherDisplay:10.37,2013-08-11 02:31:00,
2013-08-10 22:36:00,75.1,75.1,30.16,NNW,337,0.0,0.0,100,0.00,CLR,,0.23,WeatherDisplay:10.37,2013-08-11 02:36:00,
2013-08-10 22:41:00,75.1,75.1,30.16,NNW,337,0.0,0.0,100,0.00,CLR,,0.23,WeatherDisplay:10.37,2013-08-11 02:41:00,
2013-08-10 22:46:00,74.8,74.8,30.16,NNW,337,0.0,0.0,100,0.00,CLR,,0.23,WeatherDisplay:10.37,2013-08-11 02:46:00,
2013-08-10 22:52:00,74.6,74.6,30.16,NNW,337,0.0,0.0,100,0.00,CLR,,0.23,WeatherDisplay:10.37,2013-08-11 02:52:00,
2013-08-10 22:57:00,74.6,74.6,30.15,NNW,337,0.0,0.0,100,0.00,CLR,,0.23,WeatherDisplay:10.37,2013-08-11 02:57:00,
2013-08-10 23:02:00,74.4,74.4,30.16,NNW,337,0.0,0.0,100,0.00,CLR,,0.23,WeatherDisplay:10.37,2013-08-11 03:02:00,
2013-08-10 23:07:00,74.3,74.3,30.16,NNW,337,0.0,0.0,100,0.00,CLR,,0.23,WeatherDisplay:10.37,2013-08-11 03:07:00,
2013-08-10 23:12:00,74.2,74.2,30.16,NNW,337,0.0,0.0,100,0.00,CLR,,0.23,WeatherDisplay:10.37,2013-08-11 03:12:00,
2013-08-10 23:17:00,74.0,74.0,30.15,NNW,337,0.0,0.0,100,0.00,CLR,,0.23,WeatherDisplay:10.37,2013-08-11 03:17:00,
2013-08-10 23:22:00,74.0,74.0,30.15,NNW,337,0.0,0.0,100,0.00,CLR,,0.23,WeatherDisplay:10.37,2013-08-11 03:22:00,
2013-08-10 23:28:00,74.1,74.1,30.14,NNW,337,0.0,0.0,100,0.00,CLR,,0.23,WeatherDisplay:10.37,2013-08-11 03:28:00,
2013-08-10 23:33:00,74.0,74.0,30.14,NNW,337,0.0,0.0,100,0.00,CLR,,0.23,WeatherDisplay:10.37,2013-08-11 03:33:00,
2013-08-10 23:38:00,74.0,74.0,30.15,NNW,337,0.0,0.0,100,0.00,CLR,,0.23,WeatherDisplay:10.37,2013-08-11 03:38:00,
2013-08-10 23:43:00,73.9,73.9,30.14,NNW,337,0.0,0.0,100,0.00,CLR,,0.23,WeatherDisplay:10.37,2013-08-11 03:43:00,
2013-08-10 23:48:00,73.9,73.9,30.14,NNW,337,0.0,0.0,100,0.00,CLR,,0.23,WeatherDisplay:10.37,2013-08-11 03:48:00,
2013-08-10 23:53:00,73.8,73.8,30.14,NNW,337,0.0,0.0,100,0.00,CLR,,0.23,WeatherDisplay:10.37,2013-08-11 03:53:00,
2013-08-10 23:58:00,73.8,73.8,30.14,NNW,337,0.0,0.0,100,0.00,CLR,,0.23,WeatherDisplay:10.37,2013-08-11 03:58:00,